sensor_id;sensor_type;location;lat;lon;timestamp;pressure;altitude;pressure_sealevel;temperature;humidity
16664;BME280;8445;51.270;9.434;2023-02-16T00:01:39;100488.16;;;3.28;78.60
16664;BME280;8445;51.270;9.434;2023-02-16T00:04:32;100488.16;;;3.28;78.19
16664;BME280;8445;51.270;9.434;2023-02-16T00:06:57;100475.22;;;3.23;78.78
16664;BME280;8445;51.270;9.434;2023-02-16T00:09:23;100474.44;;;3.20;78.51
16664;BME280;8445;51.270;9.434;2023-02-16T00:11:50;100472.72;;;3.19;78.57
16664;BME280;8445;51.270;9.434;2023-02-16T00:14:36;100472.81;;;3.16;78.81
16664;BME280;8445;51.270;9.434;2023-02-16T00:17:03;100465.94;;;3.11;79.15
16664;BME280;8445;51.270;9.434;2023-02-16T00:19:39;100466.75;;;3.14;79.55
16664;BME280;8445;51.270;9.434;2023-02-16T00:22:07;100465.94;;;3.11;78.93
16664;BME280;8445;51.270;9.434;2023-02-16T00:24:34;100472.13;;;3.09;79.45
16664;BME280;8445;51.270;9.434;2023-02-16T00:27:00;100473.91;;;3.07;79.03
16664;BME280;8445;51.270;9.434;2023-02-16T00:29:29;100472.13;;;3.09;79.57
16664;BME280;8445;51.270;9.434;2023-02-16T00:31:56;100465.09;;;3.11;79.08
16664;BME280;8445;51.270;9.434;2023-02-16T00:34:31;100457.19;;;3.13;79.99
16664;BME280;8445;51.270;9.434;2023-02-16T00:37:01;100453.94;;;3.04;79.05
16664;BME280;8445;51.270;9.434;2023-02-16T00:39:28;100461.75;;;3.06;79.36
16664;BME280;8445;51.270;9.434;2023-02-16T00:42:17;100459.06;;;3.07;79.26
16664;BME280;8445;51.270;9.434;2023-02-16T00:44:47;100462.59;;;3.06;79.57
16664;BME280;8445;51.270;9.434;2023-02-16T00:47:22;100460.88;;;3.05;79.17
16664;BME280;8445;51.270;9.434;2023-02-16T00:49:50;100466.09;;;3.05;79.68
16664;BME280;8445;51.270;9.434;2023-02-16T00:54:51;100470.50;;;3.05;78.93
16664;BME280;8445;51.270;9.434;2023-02-16T00:57:17;100461.91;;;3.00;79.57
16664;BME280;8445;51.270;9.434;2023-02-16T00:59:43;100468.88;;;2.99;79.23
16664;BME280;8445;51.270;9.434;2023-02-16T01:02:09;100470.69;;;2.97;79.17
16664;BME280;8445;51.270;9.434;2023-02-16T01:04:35;100462.88;;;2.95;79.62
16664;BME280;8445;51.270;9.434;2023-02-16T01:07:15;100453.38;;;2.93;80.02
16664;BME280;8445;51.270;9.434;2023-02-16T01:10:01;100458.50;;;2.96;79.52
16664;BME280;8445;51.270;9.434;2023-02-16T01:12:45;100453.19;;;2.99;79.25
16664;BME280;8445;51.270;9.434;2023-02-16T01:15:15;100452.50;;;2.94;79.09
16664;BME280;8445;51.270;9.434;2023-02-16T01:17:50;100451.69;;;2.90;79.98
16664;BME280;8445;51.270;9.434;2023-02-16T01:20:17;100445.63;;;2.90;79.15
16664;BME280;8445;51.270;9.434;2023-02-16T01:22:43;100446.47;;;2.90;79.61
16664;BME280;8445;51.270;9.434;2023-02-16T01:25:09;100465.66;;;2.89;79.42
16664;BME280;8445;51.270;9.434;2023-02-16T01:27:37;100459.47;;;2.93;78.95
16664;BME280;8445;51.270;9.434;2023-02-16T01:30:17;100464.56;;;2.98;79.05
16664;BME280;8445;51.270;9.434;2023-02-16T01:32:43;100461.19;;;2.94;79.14
16664;BME280;8445;51.270;9.434;2023-02-16T01:35:12;100448.19;;;2.91;79.05
16664;BME280;8445;51.270;9.434;2023-02-16T01:37:37;100447.34;;;2.91;79.49
16664;BME280;8445;51.270;9.434;2023-02-16T01:40:04;100459.59;;;2.89;78.70
16664;BME280;8445;51.270;9.434;2023-02-16T01:42:53;100448.41;;;2.84;79.18
16664;BME280;8445;51.270;9.434;2023-02-16T01:45:33;100449.31;;;2.81;79.78
16664;BME280;8445;51.270;9.434;2023-02-16T01:48:04;100452.84;;;2.80;79.79
16664;BME280;8445;51.270;9.434;2023-02-16T01:53:32;100440.81;;;2.74;79.75
16664;BME280;8445;51.270;9.434;2023-02-16T01:56:05;100446.84;;;2.76;79.86
16664;BME280;8445;51.270;9.434;2023-02-16T01:58:47;100440.66;;;2.79;80.03
16664;BME280;8445;51.270;9.434;2023-02-16T02:01:36;100441.56;;;2.78;79.65
16664;BME280;8445;51.270;9.434;2023-02-16T02:07:00;100425.13;;;2.74;80.04
16664;BME280;8445;51.270;9.434;2023-02-16T02:09:35;100418.19;;;2.73;79.73
16664;BME280;8445;51.270;9.434;2023-02-16T02:14:52;100413.03;;;2.70;80.32
16664;BME280;8445;51.270;9.434;2023-02-16T02:17:19;100412.16;;;2.71;80.47
16664;BME280;8445;51.270;9.434;2023-02-16T02:22:53;100415.00;;;2.62;80.19
16664;BME280;8445;51.270;9.434;2023-02-16T02:31:47;100392.38;;;2.61;79.98
16664;BME280;8445;51.270;9.434;2023-02-16T02:34:25;100395.06;;;2.58;80.32
16664;BME280;8445;51.270;9.434;2023-02-16T02:37:04;100385.53;;;2.57;80.34
16664;BME280;8445;51.270;9.434;2023-02-16T02:42:46;100385.53;;;2.57;80.38
16664;BME280;8445;51.270;9.434;2023-02-16T02:45:27;100384.72;;;2.55;81.73
16664;BME280;8445;51.270;9.434;2023-02-16T02:47:54;100385.69;;;2.50;80.08
16664;BME280;8445;51.270;9.434;2023-02-16T02:53:05;100373.59;;;2.46;80.56
16664;BME280;8445;51.270;9.434;2023-02-16T02:55:35;100393.66;;;2.46;80.47
16664;BME280;8445;51.270;9.434;2023-02-16T02:58:23;100384.13;;;2.43;80.57
16664;BME280;8445;51.270;9.434;2023-02-16T03:01:10;100386.75;;;2.43;80.22
16664;BME280;8445;51.270;9.434;2023-02-16T03:03:41;100390.22;;;2.44;80.54
16664;BME280;8445;51.270;9.434;2023-02-16T03:06:19;100386.66;;;2.46;80.25
16664;BME280;8445;51.270;9.434;2023-02-16T03:08:50;100372.75;;;2.46;80.40
16664;BME280;8445;51.270;9.434;2023-02-16T03:11:23;100390.31;;;2.41;80.33
16664;BME280;8445;51.270;9.434;2023-02-16T03:14:23;100385.97;;;2.40;80.55
16664;BME280;8445;51.270;9.434;2023-02-16T03:16:53;100386.00;;;2.38;80.42
16664;BME280;8445;51.270;9.434;2023-02-16T03:19:39;100393.88;;;2.36;80.41
16664;BME280;8445;51.270;9.434;2023-02-16T03:22:26;100387.03;;;2.32;80.74
16664;BME280;8445;51.270;9.434;2023-02-16T03:25:11;100387.78;;;2.36;81.15
16664;BME280;8445;51.270;9.434;2023-02-16T03:27:57;100388.66;;;2.36;80.93
16664;BME280;8445;51.270;9.434;2023-02-16T03:30:44;100397.47;;;2.32;81.07
16664;BME280;8445;51.270;9.434;2023-02-16T03:33:10;100392.31;;;2.29;80.62
16664;BME280;8445;51.270;9.434;2023-02-16T03:35:35;100398.41;;;2.30;80.81
16664;BME280;8445;51.270;9.434;2023-02-16T03:38:01;100400.13;;;2.31;80.90
16664;BME280;8445;51.270;9.434;2023-02-16T03:40:30;100396.63;;;2.32;80.65
16664;BME280;8445;51.270;9.434;2023-02-16T03:43:04;100397.56;;;2.29;81.12
16664;BME280;8445;51.270;9.434;2023-02-16T03:45:35;100400.16;;;2.29;81.17
16664;BME280;8445;51.270;9.434;2023-02-16T03:48:02;100387.97;;;2.30;81.09
16664;BME280;8445;51.270;9.434;2023-02-16T03:50:28;100393.28;;;2.27;80.65
16664;BME280;8445;51.270;9.434;2023-02-16T03:52:54;100392.31;;;2.31;80.64
16664;BME280;8445;51.270;9.434;2023-02-16T03:55:39;100393.13;;;2.33;81.30
16664;BME280;8445;51.270;9.434;2023-02-16T03:58:06;100390.59;;;2.30;80.78
16664;BME280;8445;51.270;9.434;2023-02-16T04:00:32;100391.56;;;2.26;81.07
16664;BME280;8445;51.270;9.434;2023-02-16T04:03:02;100393.28;;;2.27;81.22
16664;BME280;8445;51.270;9.434;2023-02-16T04:05:30;100391.41;;;2.32;81.02
16664;BME280;8445;51.270;9.434;2023-02-16T04:07:57;100386.94;;;2.35;80.96
16664;BME280;8445;51.270;9.434;2023-02-16T04:10:27;100375.66;;;2.35;80.32
16664;BME280;8445;51.270;9.434;2023-02-16T04:12:54;100387.78;;;2.36;80.82
16664;BME280;8445;51.270;9.434;2023-02-16T04:15:23;100393.00;;;2.37;80.53
16664;BME280;8445;51.270;9.434;2023-02-16T04:17:50;100396.63;;;2.32;80.50
16664;BME280;8445;51.270;9.434;2023-02-16T04:20:22;100389.63;;;2.34;80.65
16664;BME280;8445;51.270;9.434;2023-02-16T04:22:48;100392.31;;;2.31;81.48
16664;BME280;8445;51.270;9.434;2023-02-16T04:25:15;100382.69;;;2.31;81.61
16664;BME280;8445;51.270;9.434;2023-02-16T04:27:42;100393.13;;;2.33;81.16
16664;BME280;8445;51.270;9.434;2023-02-16T04:30:13;100395.59;;;2.37;80.54
16664;BME280;8445;51.270;9.434;2023-02-16T04:32:39;100391.22;;;2.38;80.63
16664;BME280;8445;51.270;9.434;2023-02-16T04:35:07;100389.47;;;2.39;80.29
16664;BME280;8445;51.270;9.434;2023-02-16T04:37:36;100391.16;;;2.41;80.19
16664;BME280;8445;51.270;9.434;2023-02-16T04:40:13;100396.38;;;2.41;80.52
16664;BME280;8445;51.270;9.434;2023-02-16T04:42:44;100382.50;;;2.39;80.80
16664;BME280;8445;51.270;9.434;2023-02-16T04:45:16;100385.03;;;2.42;80.90
16664;BME280;8445;51.270;9.434;2023-02-16T04:47:47;100380.75;;;2.40;79.77
16664;BME280;8445;51.270;9.434;2023-02-16T04:50:16;100387.78;;;2.37;80.03
16664;BME280;8445;51.270;9.434;2023-02-16T04:52:46;100382.63;;;2.34;80.39
16664;BME280;8445;51.270;9.434;2023-02-16T04:55:16;100379.19;;;2.32;80.59
16664;BME280;8445;51.270;9.434;2023-02-16T04:57:47;100373.16;;;2.30;80.89
16664;BME280;8445;51.270;9.434;2023-02-16T05:00:17;100367.09;;;2.30;81.57
16664;BME280;8445;51.270;9.434;2023-02-16T05:02:45;100374.03;;;2.31;81.17
16664;BME280;8445;51.270;9.434;2023-02-16T05:05:14;100360.97;;;2.31;80.77
16664;BME280;8445;51.270;9.434;2023-02-16T05:07:44;100360.97;;;2.31;81.83
16664;BME280;8445;51.270;9.434;2023-02-16T05:10:21;100368.81;;;2.29;80.92
16664;BME280;8445;51.270;9.434;2023-02-16T05:12:49;100366.19;;;2.31;81.47
16664;BME280;8445;51.270;9.434;2023-02-16T05:15:35;100370.53;;;2.32;80.70
16664;BME280;8445;51.270;9.434;2023-02-16T05:18:05;100371.41;;;2.31;80.86
16664;BME280;8445;51.270;9.434;2023-02-16T05:20:33;100373.22;;;2.27;81.52
16664;BME280;8445;51.270;9.434;2023-02-16T05:23:18;100370.63;;;2.27;81.00
16664;BME280;8445;51.270;9.434;2023-02-16T05:25:47;100370.69;;;2.24;81.00
16664;BME280;8445;51.270;9.434;2023-02-16T05:28:14;100367.31;;;2.20;81.29
16664;BME280;8445;51.270;9.434;2023-02-16T05:30:40;100360.38;;;2.19;81.08
16664;BME280;8445;51.270;9.434;2023-02-16T05:33:05;100369.13;;;2.18;82.38
16664;BME280;8445;51.270;9.434;2023-02-16T05:35:32;100363.97;;;2.15;81.78
16664;BME280;8445;51.270;9.434;2023-02-16T05:37:59;100369.22;;;2.14;81.99
16664;BME280;8445;51.270;9.434;2023-02-16T05:40:26;100353.69;;;2.07;81.21
16664;BME280;8445;51.270;9.434;2023-02-16T05:42:53;100352.03;;;2.05;82.89
16664;BME280;8445;51.270;9.434;2023-02-16T05:45:18;100355.47;;;2.07;82.29
16664;BME280;8445;51.270;9.434;2023-02-16T05:47:44;100360.69;;;2.07;81.79
16664;BME280;8445;51.270;9.434;2023-02-16T05:50:11;100365.91;;;2.07;81.77
16664;BME280;8445;51.270;9.434;2023-02-16T05:52:40;100364.97;;;2.10;81.15
16664;BME280;8445;51.270;9.434;2023-02-16T05:55:06;100371.06;;;2.10;80.91
16664;BME280;8445;51.270;9.434;2023-02-16T05:57:31;100383.28;;;2.08;81.25
16664;BME280;8445;51.270;9.434;2023-02-16T06:00:00;100381.66;;;2.04;80.96
16664;BME280;8445;51.270;9.434;2023-02-16T06:02:31;100377.44;;;1.98;81.97
16664;BME280;8445;51.270;9.434;2023-02-16T06:04:57;100376.56;;;1.98;80.96
16664;BME280;8445;51.270;9.434;2023-02-16T06:07:25;100381.88;;;1.95;81.11
16664;BME280;8445;51.270;9.434;2023-02-16T06:09:52;100383.66;;;1.92;81.53
16664;BME280;8445;51.270;9.434;2023-02-16T06:12:18;100379.31;;;1.93;82.17
16664;BME280;8445;51.270;9.434;2023-02-16T06:14:43;100393.19;;;1.93;81.92
16664;BME280;8445;51.270;9.434;2023-02-16T06:17:09;100393.25;;;1.92;82.04
16664;BME280;8445;51.270;9.434;2023-02-16T06:19:34;100388.91;;;1.91;81.45
16664;BME280;8445;51.270;9.434;2023-02-16T06:22:02;100390.66;;;1.90;81.44
16664;BME280;8445;51.270;9.434;2023-02-16T06:24:28;100399.34;;;1.91;81.68
16664;BME280;8445;51.270;9.434;2023-02-16T06:26:53;100401.97;;;1.91;81.35
16664;BME280;8445;51.270;9.434;2023-02-16T06:29:18;100409.75;;;1.92;81.97
16664;BME280;8445;51.270;9.434;2023-02-16T06:31:44;100402.00;;;1.89;81.70
16664;BME280;8445;51.270;9.434;2023-02-16T06:34:09;100402.81;;;1.91;81.27
16664;BME280;8445;51.270;9.434;2023-02-16T06:36:35;100399.34;;;1.91;81.70
16664;BME280;8445;51.270;9.434;2023-02-16T06:39:00;100401.91;;;1.94;81.61
16664;BME280;8445;51.270;9.434;2023-02-16T06:41:26;100412.28;;;1.96;81.95
16664;BME280;8445;51.270;9.434;2023-02-16T06:44:14;100412.28;;;1.96;81.63
16664;BME280;8445;51.270;9.434;2023-02-16T06:46:41;100413.97;;;1.98;82.13
16664;BME280;8445;51.270;9.434;2023-02-16T06:49:10;100414.81;;;1.99;81.31
16664;BME280;8445;51.270;9.434;2023-02-16T06:51:36;100424.38;;;2.00;81.68
16664;BME280;8445;51.270;9.434;2023-02-16T06:54:02;100423.47;;;2.01;81.89
16664;BME280;8445;51.270;9.434;2023-02-16T06:56:27;100422.63;;;2.00;82.51
16664;BME280;8445;51.270;9.434;2023-02-16T06:58:53;100421.69;;;2.03;82.38
16664;BME280;8445;51.270;9.434;2023-02-16T07:01:19;100414.72;;;2.03;82.16
16664;BME280;8445;51.270;9.434;2023-02-16T07:03:52;100407.75;;;2.04;82.26
16664;BME280;8445;51.270;9.434;2023-02-16T07:06:22;100407.66;;;2.07;82.21
16664;BME280;8445;51.270;9.434;2023-02-16T07:08:49;100405.88;;;2.09;81.98
16664;BME280;8445;51.270;9.434;2023-02-16T07:11:15;100404.94;;;2.12;82.12
16664;BME280;8445;51.270;9.434;2023-02-16T07:13:42;100409.25;;;2.14;82.12
16664;BME280;8445;51.270;9.434;2023-02-16T07:16:09;100413.44;;;2.20;81.82
16664;BME280;8445;51.270;9.434;2023-02-16T07:18:36;100411.63;;;2.24;82.15
16664;BME280;8445;51.270;9.434;2023-02-16T07:21:04;100417.66;;;2.26;82.27
16664;BME280;8445;51.270;9.434;2023-02-16T07:23:31;100416.78;;;2.27;82.03
16664;BME280;8445;51.270;9.434;2023-02-16T07:25:56;100415.88;;;2.28;82.57
16664;BME280;8445;51.270;9.434;2023-02-16T07:28:22;100414.03;;;2.31;82.48
16664;BME280;8445;51.270;9.434;2023-02-16T07:30:47;100407.09;;;2.30;82.60
16664;BME280;8445;51.270;9.434;2023-02-16T07:33:14;100411.41;;;2.31;82.61
16664;BME280;8445;51.270;9.434;2023-02-16T07:35:39;100421.72;;;2.37;82.56
16664;BME280;8445;51.270;9.434;2023-02-16T07:38:05;100419.78;;;2.44;82.76
16664;BME280;8445;51.270;9.434;2023-02-16T07:40:30;100414.69;;;2.40;82.71
16664;BME280;8445;51.270;9.434;2023-02-16T07:43:00;100416.44;;;2.39;82.48
16664;BME280;8445;51.270;9.434;2023-02-16T07:45:27;100411.28;;;2.36;82.63
16664;BME280;8445;51.270;9.434;2023-02-16T07:47:58;100414.69;;;2.40;82.58
16664;BME280;8445;51.270;9.434;2023-02-16T07:50:26;100418.00;;;2.46;82.32
16664;BME280;8445;51.270;9.434;2023-02-16T07:52:56;100410.84;;;2.55;82.33
16664;BME280;8445;51.270;9.434;2023-02-16T07:55:24;100418.59;;;2.58;81.99
16664;BME280;8445;51.270;9.434;2023-02-16T07:57:50;100416.88;;;2.57;81.81
16664;BME280;8445;51.270;9.434;2023-02-16T08:00:19;100419.53;;;2.55;82.43
16664;BME280;8445;51.270;9.434;2023-02-16T08:02:45;100427.31;;;2.57;83.03
16664;BME280;8445;51.270;9.434;2023-02-16T08:05:10;100437.66;;;2.61;82.49
16664;BME280;8445;51.270;9.434;2023-02-16T08:07:36;100429.75;;;2.64;82.55
16664;BME280;8445;51.270;9.434;2023-02-16T08:10:01;100422.69;;;2.66;82.85
16664;BME280;8445;51.270;9.434;2023-02-16T08:12:27;100426.88;;;2.74;82.63
16664;BME280;8445;51.270;9.434;2023-02-16T08:14:52;100437.13;;;2.81;82.86
16664;BME280;8445;51.270;9.434;2023-02-16T08:17:19;100434.47;;;2.83;82.70
16664;BME280;8445;51.270;9.434;2023-02-16T08:19:49;100446.72;;;2.81;82.78
16664;BME280;8445;51.270;9.434;2023-02-16T08:22:19;100429.22;;;2.85;83.45
16664;BME280;8445;51.270;9.434;2023-02-16T08:24:48;100429.06;;;2.89;83.59
16664;BME280;8445;51.270;9.434;2023-02-16T08:27:16;100434.97;;;2.96;83.81
16664;BME280;8445;51.270;9.434;2023-02-16T08:29:42;100438.41;;;2.98;82.91
16664;BME280;8445;51.270;9.434;2023-02-16T08:32:10;100433.16;;;3.00;82.92
16664;BME280;8445;51.270;9.434;2023-02-16T08:34:37;100427.97;;;2.98;83.40
16664;BME280;8445;51.270;9.434;2023-02-16T08:37:03;100432.38;;;2.96;83.22
16664;BME280;8445;51.270;9.434;2023-02-16T08:39:30;100424.44;;;2.99;83.56
16664;BME280;8445;51.270;9.434;2023-02-16T08:41:57;100420.00;;;3.03;83.62
16664;BME280;8445;51.270;9.434;2023-02-16T08:44:24;100420.84;;;3.03;83.84
16664;BME280;8445;51.270;9.434;2023-02-16T08:46:51;100424.19;;;3.08;84.13
16664;BME280;8445;51.270;9.434;2023-02-16T08:49:20;100431.94;;;3.11;83.38
16664;BME280;8445;51.270;9.434;2023-02-16T08:51:49;100421.31;;;3.18;83.79
16664;BME280;8445;51.270;9.434;2023-02-16T08:54:17;100422.06;;;3.23;83.66
16664;BME280;8445;51.270;9.434;2023-02-16T08:56:44;100420.06;;;3.31;84.70
16664;BME280;8445;51.270;9.434;2023-02-16T08:59:14;100424.88;;;3.45;84.37
16664;BME280;8445;51.270;9.434;2023-02-16T09:01:39;100432.56;;;3.51;84.04
16664;BME280;8445;51.270;9.434;2023-02-16T09:04:06;100435.91;;;3.56;83.98
16664;BME280;8445;51.270;9.434;2023-02-16T09:06:35;100427.72;;;3.67;84.32
16664;BME280;8445;51.270;9.434;2023-02-16T09:09:01;100424.78;;;3.78;83.52
16664;BME280;8445;51.270;9.434;2023-02-16T09:11:29;100418.59;;;3.81;83.14
16664;BME280;8445;51.270;9.434;2023-02-16T09:13:55;100432.38;;;3.86;83.77
16664;BME280;8445;51.270;9.434;2023-02-16T09:16:22;100432.38;;;3.86;82.75
16664;BME280;8445;51.270;9.434;2023-02-16T09:18:49;100432.09;;;3.95;84.32
16664;BME280;8445;51.270;9.434;2023-02-16T09:21:20;100423.81;;;4.09;84.43
16664;BME280;8445;51.270;9.434;2023-02-16T09:23:48;100413.44;;;4.33;84.88
16664;BME280;8445;51.270;9.434;2023-02-16T09:26:18;100425.84;;;4.53;85.65
16664;BME280;8445;51.270;9.434;2023-02-16T09:28:44;100422.59;;;4.72;85.55
16664;BME280;8445;51.270;9.434;2023-02-16T09:31:10;100427.28;;;4.87;84.60
16664;BME280;8445;51.270;9.434;2023-02-16T09:33:37;100435.53;;;5.02;84.89
16664;BME280;8445;51.270;9.434;2023-02-16T09:36:07;100427.34;;;5.11;83.99
16664;BME280;8445;51.270;9.434;2023-02-16T09:38:34;100431.44;;;5.18;84.38
16664;BME280;8445;51.270;9.434;2023-02-16T09:41:32;100427.47;;;5.07;82.75
16664;BME280;8445;51.270;9.434;2023-02-16T09:46:55;100422.50;;;5.00;83.96
16664;BME280;8445;51.270;9.434;2023-02-16T09:49:39;100431.78;;;5.09;83.36
16664;BME280;8445;51.270;9.434;2023-02-16T09:52:16;100431.22;;;5.25;82.75
16664;BME280;8445;51.270;9.434;2023-02-16T09:55:05;100418.66;;;5.33;83.38
16664;BME280;8445;51.270;9.434;2023-02-16T10:00:24;100424.56;;;5.62;84.09
16664;BME280;8445;51.270;9.434;2023-02-16T10:08:23;100411.13;;;5.92;82.41
16664;BME280;8445;51.270;9.434;2023-02-16T10:13:42;100419.44;;;5.81;81.07
16664;BME280;8445;51.270;9.434;2023-02-16T10:16:23;100421.19;;;6.04;84.83
16664;BME280;8445;51.270;9.434;2023-02-16T10:18:52;100412.06;;;6.35;84.42
16664;BME280;8445;51.270;9.434;2023-02-16T10:21:23;100421.28;;;6.46;84.05
16664;BME280;8445;51.270;9.434;2023-02-16T10:24:11;100418.88;;;6.60;82.13
16664;BME280;8445;51.270;9.434;2023-02-16T10:26:50;100414.91;;;6.72;82.87
16664;BME280;8445;51.270;9.434;2023-02-16T10:29:20;100420.72;;;6.79;82.94
16664;BME280;8445;51.270;9.434;2023-02-16T10:32:14;100416.75;;;6.70;78.44
16664;BME280;8445;51.270;9.434;2023-02-16T10:34:54;100406.00;;;6.75;82.00
16664;BME280;8445;51.270;9.434;2023-02-16T10:37:34;100414.25;;;6.67;81.14
16664;BME280;8445;51.270;9.434;2023-02-16T10:40:29;100418.34;;;6.52;79.18
16664;BME280;8445;51.270;9.434;2023-02-16T10:45:52;100411.59;;;6.46;80.34
16664;BME280;8445;51.270;9.434;2023-02-16T10:48:19;100419.34;;;6.49;80.95
16664;BME280;8445;51.270;9.434;2023-02-16T10:53:38;100410.03;;;6.63;81.96
16664;BME280;8445;51.270;9.434;2023-02-16T10:56:38;100401.63;;;6.75;77.99
16664;BME280;8445;51.270;9.434;2023-02-16T10:59:17;100405.41;;;6.89;80.07
16664;BME280;8445;51.270;9.434;2023-02-16T11:01:53;100398.56;;;6.85;79.11
16664;BME280;8445;51.270;9.434;2023-02-16T11:04:34;100390.47;;;6.89;80.93
16664;BME280;8445;51.270;9.434;2023-02-16T11:07:11;100391.84;;;6.98;81.03
16664;BME280;8445;51.270;9.434;2023-02-16T11:09:42;100379.13;;;7.08;81.75
16664;BME280;8445;51.270;9.434;2023-02-16T11:14:39;100370.38;;;7.26;81.45
16664;BME280;8445;51.270;9.434;2023-02-16T11:17:14;100373.16;;;7.42;82.15
16664;BME280;8445;51.270;9.434;2023-02-16T11:22:27;100366.03;;;7.64;77.64
16664;BME280;8445;51.270;9.434;2023-02-16T11:24:53;100357.38;;;7.79;80.62
16664;BME280;8445;51.270;9.434;2023-02-16T11:27:23;100362.34;;;7.85;80.77
16664;BME280;8445;51.270;9.434;2023-02-16T11:29:49;100356.03;;;8.07;81.88
16664;BME280;8445;51.270;9.434;2023-02-16T11:32:19;100362.06;;;8.27;81.20
16664;BME280;8445;51.270;9.434;2023-02-16T11:34:52;100355.47;;;8.36;80.41
16664;BME280;8445;51.270;9.434;2023-02-16T11:37:26;100335.00;;;8.41;78.57
16664;BME280;8445;51.270;9.434;2023-02-16T11:40:15;100346.81;;;8.51;80.80
16664;BME280;8445;51.270;9.434;2023-02-16T11:42:48;100338.97;;;8.50;79.27
16664;BME280;8445;51.270;9.434;2023-02-16T11:48:00;100344.72;;;8.58;77.64
16664;BME280;8445;51.270;9.434;2023-02-16T11:50:34;100339.91;;;8.49;78.95
16664;BME280;8445;51.270;9.434;2023-02-16T11:53:15;100333.00;;;8.46;75.48
16664;BME280;8445;51.270;9.434;2023-02-16T11:55:50;100340.50;;;8.36;77.90
16664;BME280;8445;51.270;9.434;2023-02-16T11:58:38;100334.63;;;8.13;75.50
16664;BME280;8445;51.270;9.434;2023-02-16T12:03:55;100331.94;;;7.41;74.64
16664;BME280;8445;51.270;9.434;2023-02-16T12:07:13;100334.19;;;7.12;75.87
16664;BME280;8445;51.270;9.434;2023-02-16T12:12:12;100324.03;;;7.24;77.41
16664;BME280;8445;51.270;9.434;2023-02-16T12:18:16;100328.28;;;7.26;75.46
16664;BME280;8445;51.270;9.434;2023-02-16T12:21:12;100321.94;;;7.31;75.57
16664;BME280;8445;51.270;9.434;2023-02-16T12:24:00;100332.47;;;7.31;75.70
16664;BME280;8445;51.270;9.434;2023-02-16T12:26:51;100325.66;;;7.26;74.68
16664;BME280;8445;51.270;9.434;2023-02-16T12:37:52;100301.53;;;7.72;75.92
16664;BME280;8445;51.270;9.434;2023-02-16T12:46:00;100286.34;;;8.13;77.93
16664;BME280;8445;51.270;9.434;2023-02-16T12:48:41;100290.19;;;8.23;75.46
16664;BME280;8445;51.270;9.434;2023-02-16T12:51:17;100290.69;;;8.14;75.04
16664;BME280;8445;51.270;9.434;2023-02-16T12:54:07;100288.19;;;8.28;73.04
16664;BME280;8445;51.270;9.434;2023-02-16T12:56:41;100293.06;;;8.54;75.84
16664;BME280;8445;51.270;9.434;2023-02-16T13:01:46;100277.53;;;8.81;77.04
16664;BME280;8445;51.270;9.434;2023-02-16T13:04:18;100273.78;;;8.85;75.16
16664;BME280;8445;51.270;9.434;2023-02-16T13:12:34;100266.31;;;8.78;73.38
16664;BME280;8445;51.270;9.434;2023-02-16T13:15:13;100262.47;;;8.83;75.54
16664;BME280;8445;51.270;9.434;2023-02-16T13:17:45;100262.31;;;8.86;76.05
16664;BME280;8445;51.270;9.434;2023-02-16T13:20:20;100262.81;;;8.93;75.21
16664;BME280;8445;51.270;9.434;2023-02-16T13:25:30;100257.53;;;8.93;75.57
16664;BME280;8445;51.270;9.434;2023-02-16T13:28:24;100245.63;;;9.02;74.81
16664;BME280;8445;51.270;9.434;2023-02-16T13:31:22;100249.13;;;9.02;70.95
16664;BME280;8445;51.270;9.434;2023-02-16T13:39:32;100255.59;;;8.81;70.17
16664;BME280;8445;51.270;9.434;2023-02-16T13:45:12;100242.13;;;8.69;71.13
16664;BME280;8445;51.270;9.434;2023-02-16T13:47:39;100237.09;;;8.65;73.83
16664;BME280;8445;51.270;9.434;2023-02-16T13:50:08;100239.66;;;8.66;74.69
16664;BME280;8445;51.270;9.434;2023-02-16T13:52:54;100247.06;;;8.75;74.46
16664;BME280;8445;51.270;9.434;2023-02-16T13:55:32;100250.31;;;8.81;70.85
16664;BME280;8445;51.270;9.434;2023-02-16T14:00:45;100233.34;;;8.85;72.71
16664;BME280;8445;51.270;9.434;2023-02-16T14:05:52;100238.06;;;8.80;72.98
16664;BME280;8445;51.270;9.434;2023-02-16T14:08:30;100231.25;;;8.75;73.47
16664;BME280;8445;51.270;9.434;2023-02-16T14:10:58;100231.41;;;8.72;73.09
16664;BME280;8445;51.270;9.434;2023-02-16T14:16:27;100229.00;;;8.52;72.82
16664;BME280;8445;51.270;9.434;2023-02-16T14:21:40;100227.59;;;8.44;70.58
16664;BME280;8445;51.270;9.434;2023-02-16T14:24:33;100223.38;;;8.24;70.96
16664;BME280;8445;51.270;9.434;2023-02-16T14:27:08;100218.22;;;8.05;71.67
16664;BME280;8445;51.270;9.434;2023-02-16T14:29:41;100220.03;;;7.87;71.66
16664;BME280;8445;51.270;9.434;2023-02-16T14:32:42;100220.56;;;7.76;71.27
16664;BME280;8445;51.270;9.434;2023-02-16T14:35:18;100232.19;;;7.54;71.00
16664;BME280;8445;51.270;9.434;2023-02-16T14:37:58;100237.34;;;7.38;71.00
16664;BME280;8445;51.270;9.434;2023-02-16T14:43:02;100243.38;;;7.23;71.42
16664;BME280;8445;51.270;9.434;2023-02-16T14:48:14;100232.56;;;7.29;71.37
16664;BME280;8445;51.270;9.434;2023-02-16T14:56:41;100224.06;;;7.05;71.52
16664;BME280;8445;51.270;9.434;2023-02-16T15:01:44;100203.16;;;7.02;71.71
16664;BME280;8445;51.270;9.434;2023-02-16T15:04:10;100196.09;;;7.02;71.89
16664;BME280;8445;51.270;9.434;2023-02-16T15:06:45;100195.28;;;7.02;72.51
16664;BME280;8445;51.270;9.434;2023-02-16T15:09:24;100195.88;;;7.07;72.69
16664;BME280;8445;51.270;9.434;2023-02-16T15:11:58;100190.47;;;7.10;72.53
16664;BME280;8445;51.270;9.434;2023-02-16T15:14:50;100189.00;;;7.04;72.39
16664;BME280;8445;51.270;9.434;2023-02-16T15:17:47;100186.66;;;6.98;72.36
16664;BME280;8445;51.270;9.434;2023-02-16T15:20:23;100192.28;;;6.90;72.25
16664;BME280;8445;51.270;9.434;2023-02-16T15:22:54;100184.69;;;6.84;72.16
16664;BME280;8445;51.270;9.434;2023-02-16T15:28:14;100178.72;;;6.80;72.21
16664;BME280;8445;51.270;9.434;2023-02-16T15:30:44;100175.38;;;6.77;72.24
16664;BME280;8445;51.270;9.434;2023-02-16T15:33:32;100174.59;;;6.75;72.23
16664;BME280;8445;51.270;9.434;2023-02-16T15:36:03;100164.22;;;6.72;71.93
16664;BME280;8445;51.270;9.434;2023-02-16T15:38:37;100168.94;;;6.65;72.14
16664;BME280;8445;51.270;9.434;2023-02-16T15:41:08;100171.91;;;6.57;71.77